createdAt,value
2019-02-21T00:02:19.690Z,27.80
2019-02-21T00:04:53.294Z,29.43
2019-02-21T00:07:26.782Z,35.07
2019-02-21T00:10:00.473Z,33.47
2019-02-21T00:12:34.087Z,35.53
2019-02-21T00:15:08.088Z,33.80
2019-02-21T00:17:41.583Z,38.20
2019-02-21T00:20:14.991Z,37.13
2019-02-21T00:22:59.789Z,38.27
2019-02-21T00:25:49.288Z,36.37
2019-02-21T00:28:18.248Z,33.90
2019-02-21T00:30:53.325Z,30.90
2019-02-21T00:33:26.840Z,26.97
2019-02-21T00:36:00.284Z,28.93
2019-02-21T00:38:34.956Z,25.70
2019-02-21T00:41:08.408Z,28.47
2019-02-21T00:43:43.566Z,31.37
2019-02-21T00:46:17.087Z,28.23
2019-02-21T00:48:50.531Z,24.67
2019-02-21T00:51:23.978Z,32.53
2019-02-21T00:53:57.648Z,29.73
2019-02-21T00:56:31.186Z,24.40
2019-02-21T00:59:04.755Z,25.33
2019-02-21T01:01:38.174Z,28.90
2019-02-21T01:04:16.433Z,25.90
2019-02-21T01:06:49.966Z,23.33
2019-02-21T01:09:23.465Z,28.80
2019-02-21T01:11:57.056Z,26.63
2019-02-21T01:14:30.479Z,28.50
2019-02-21T01:17:04.034Z,26.17
2019-02-21T01:19:37.547Z,29.30
2019-02-21T01:22:11.085Z,23.13
2019-02-21T01:24:44.515Z,22.33
2019-02-21T01:27:18.029Z,25.73
2019-02-21T01:29:51.504Z,24.70
2019-02-21T01:32:26.640Z,24.00
2019-02-21T01:35:00.308Z,22.30
2019-02-21T01:37:35.935Z,29.97
2019-02-21T01:40:12.430Z,25.17
2019-02-21T01:42:45.878Z,24.57
2019-02-21T01:45:19.451Z,25.77
2019-02-21T01:47:52.927Z,28.20
2019-02-21T01:50:26.367Z,23.47
2019-02-21T01:52:59.816Z,28.23
2019-02-21T01:55:33.409Z,26.77
2019-02-21T01:58:10.160Z,23.27
2019-02-21T02:00:43.668Z,25.63
2019-02-21T02:03:17.147Z,31.27
2019-02-21T02:05:52.253Z,23.07
2019-02-21T02:08:25.771Z,22.10
2019-02-21T02:10:59.250Z,25.53
2019-02-21T02:13:32.863Z,27.93
2019-02-21T02:16:09.462Z,26.80
2019-02-21T02:18:42.957Z,21.80
2019-02-21T02:21:19.121Z,20.83
2019-02-21T02:23:52.635Z,21.87
2019-02-21T02:26:26.075Z,27.73
2019-02-21T02:28:59.560Z,25.33
2019-02-21T02:31:34.730Z,21.73
2019-02-21T02:34:08.129Z,24.37
2019-02-21T02:36:44.903Z,23.77
2019-02-21T02:39:21.244Z,21.77
2019-02-21T02:41:54.800Z,22.77
2019-02-21T02:44:28.952Z,24.13
2019-02-21T02:47:02.412Z,25.43
2019-02-21T02:49:37.887Z,22.93
2019-02-21T02:52:14.622Z,26.20
2019-02-21T02:54:48.129Z,24.47
2019-02-21T02:57:21.668Z,25.57
2019-02-21T02:59:56.830Z,23.80
2019-02-21T03:02:32.973Z,21.20
2019-02-21T03:05:06.395Z,21.23
2019-02-21T03:07:39.896Z,25.23
2019-02-21T03:10:14.173Z,22.27
2019-02-21T03:12:47.683Z,19.63
2019-02-21T03:15:21.123Z,26.57
2019-02-21T03:17:56.250Z,22.97
2019-02-21T03:20:29.705Z,24.17
2019-02-21T03:23:03.205Z,23.07
2019-02-21T03:25:38.289Z,26.50
2019-02-21T03:28:11.884Z,23.83
2019-02-21T03:30:47.018Z,19.30
2019-02-21T03:33:20.488Z,24.30
2019-02-21T03:35:53.957Z,24.43
2019-02-21T03:38:27.521Z,21.97
2019-02-21T03:41:03.865Z,25.00
2019-02-21T03:43:38.353Z,21.20
2019-02-21T03:46:11.752Z,26.43
2019-02-21T03:48:47.415Z,19.90
2019-02-21T03:51:20.931Z,20.33
2019-02-21T03:53:54.480Z,26.17
2019-02-21T03:56:28.552Z,24.43
2019-02-21T03:59:02.026Z,21.73
2019-02-21T04:01:36.517Z,19.13
2019-02-21T04:04:10.097Z,20.83
2019-02-21T04:06:43.551Z,22.63
2019-02-21T04:09:17.044Z,20.60
2019-02-21T04:11:50.496Z,23.20
2019-02-21T04:14:25.647Z,25.17
2019-02-21T04:16:59.105Z,21.77
2019-02-21T04:19:32.574Z,20.67
2019-02-21T04:22:06.057Z,27.40
2019-02-21T04:24:40.388Z,22.93
2019-02-21T04:27:15.509Z,22.73
2019-02-21T04:29:51.293Z,19.37
2019-02-21T04:32:24.762Z,22.40
2019-02-21T04:34:58.258Z,23.30
2019-02-21T04:37:31.689Z,24.60
2019-02-21T04:40:06.427Z,25.70
2019-02-21T04:42:39.871Z,23.80
2019-02-21T04:45:13.432Z,29.37
2019-02-21T04:47:46.930Z,30.70
2019-02-21T04:50:20.389Z,29.53
2019-02-21T04:52:55.570Z,25.70
2019-02-21T04:55:29.059Z,28.47
2019-02-21T04:58:02.501Z,26.33
2019-02-21T05:00:36.006Z,22.20
2019-02-21T05:03:09.517Z,22.73
2019-02-21T05:05:43.021Z,26.53
2019-02-21T05:08:16.488Z,32.43
2019-02-21T05:10:49.893Z,35.57
2019-02-21T05:13:24.989Z,32.30
2019-02-21T05:15:58.490Z,33.83
2019-02-21T05:18:33.636Z,26.23
2019-02-21T05:21:07.123Z,29.03
2019-02-21T05:23:40.540Z,30.43
2019-02-21T05:26:15.673Z,30.77
2019-02-21T05:28:49.179Z,25.13
2019-02-21T05:31:27.186Z,26.93
2019-02-21T05:34:11.109Z,30.90
2019-02-21T05:36:51.984Z,29.87
2019-02-21T05:39:30.534Z,27.00
2019-02-21T05:42:24.183Z,25.73
2019-02-21T05:45:02.193Z,33.27
2019-02-21T05:47:46.205Z,27.53
2019-02-21T05:50:24.110Z,32.60
2019-02-21T05:53:06.849Z,30.60
2019-02-21T05:55:47.505Z,31.17
2019-02-21T06:01:33.319Z,29.20
2019-02-21T06:04:08.402Z,28.73
2019-02-21T06:06:49.535Z,35.67
2019-02-21T06:09:30.524Z,34.13
2019-02-21T06:12:08.380Z,33.03
2019-02-21T06:14:43.465Z,26.83
2019-02-21T06:17:18.753Z,31.60
2019-02-21T06:19:56.657Z,38.03
2019-02-21T06:22:37.476Z,36.87
2019-02-21T06:25:18.405Z,36.17
2019-02-21T06:27:53.477Z,42.20
2019-02-21T06:30:30.416Z,40.30
2019-02-21T06:33:05.361Z,42.57
2019-02-21T06:35:39.141Z,43.00
2019-02-21T06:38:13.087Z,43.73
2019-02-21T06:40:47.127Z,37.60
2019-02-21T06:43:21.058Z,47.43
2019-02-21T06:45:54.499Z,37.20
2019-02-21T06:48:27.932Z,41.97
2019-02-21T06:51:01.384Z,35.47
2019-02-21T06:53:34.807Z,32.47
2019-02-21T06:56:08.273Z,36.90
2019-02-21T06:58:42.250Z,42.40
2019-02-21T07:01:26.565Z,42.30
2019-02-21T07:03:50.906Z,35.07
2019-02-21T07:06:32.109Z,33.37
2019-02-21T07:08:59.972Z,34.93
2019-02-21T07:11:33.615Z,33.63
2019-02-21T07:14:07.040Z,32.13
2019-02-21T07:16:40.559Z,33.73
2019-02-21T07:19:13.984Z,34.93
2019-02-21T07:21:47.464Z,33.30
2019-02-21T07:24:20.943Z,35.00
2019-02-21T07:26:54.374Z,32.30
2019-02-21T07:29:27.997Z,33.87
2019-02-21T07:32:01.429Z,33.27
2019-02-21T07:34:34.902Z,36.17
2019-02-21T07:37:18.126Z,32.50
2019-02-21T07:39:44.904Z,38.20
2019-02-21T07:42:18.324Z,35.43
2019-02-21T07:44:51.896Z,32.83
2019-02-21T07:47:25.355Z,34.50
2019-02-21T07:49:58.925Z,32.77
2019-02-21T07:52:32.360Z,34.67
2019-02-21T07:55:07.466Z,33.23
2019-02-21T07:57:40.894Z,29.03
2019-02-21T08:00:14.373Z,28.27
2019-02-21T08:02:47.805Z,31.23
2019-02-21T08:05:23.596Z,33.80
2019-02-21T08:07:56.360Z,30.60
2019-02-21T08:10:33.566Z,36.57
2019-02-21T08:13:04.897Z,32.80
2019-02-21T08:15:38.368Z,36.97
2019-02-21T08:18:11.794Z,40.00
2019-02-21T08:20:46.051Z,31.43
2019-02-21T08:23:19.482Z,31.10
2019-02-21T08:25:52.991Z,32.53
2019-02-21T08:28:26.414Z,39.10
2019-02-21T08:31:13.619Z,33.60
2019-02-21T08:33:58.685Z,32.03
2019-02-21T08:36:32.441Z,33.80
2019-02-21T08:39:07.641Z,39.00
2019-02-21T08:41:41.069Z,33.33
2019-02-21T08:44:14.552Z,28.50
2019-02-21T08:46:47.990Z,36.50
2019-02-21T08:49:21.460Z,32.27
2019-02-21T08:51:55.189Z,39.47
2019-02-21T08:54:28.864Z,36.17
2019-02-21T08:57:02.295Z,33.27
2019-02-21T08:59:35.760Z,34.70
2019-02-21T09:02:09.208Z,32.57
2019-02-21T09:04:42.796Z,34.10
2019-02-21T09:07:18.988Z,30.00
2019-02-21T09:09:52.457Z,35.23
2019-02-21T09:12:25.889Z,38.00
2019-02-21T09:14:59.466Z,37.27
2019-02-21T09:17:32.938Z,32.97
2019-02-21T09:20:08.004Z,31.97
2019-02-21T09:22:41.476Z,33.73
2019-02-21T09:25:15.091Z,38.20
2019-02-21T09:27:48.574Z,35.43
2019-02-21T09:30:22.005Z,40.03
2019-02-21T09:32:55.464Z,40.13
2019-02-21T09:35:28.902Z,41.83
2019-02-21T09:38:21.790Z,40.40
2019-02-21T09:40:55.257Z,39.20
2019-02-21T09:43:28.696Z,43.20
2019-02-21T09:46:02.163Z,40.20
2019-02-21T09:48:35.639Z,39.50
2019-02-21T09:51:09.115Z,45.47
2019-02-21T09:53:42.587Z,46.20
2019-02-21T09:56:16.016Z,46.23
2019-02-21T09:58:49.510Z,42.60
2019-02-21T10:01:22.948Z,43.03
2019-02-21T10:03:57.385Z,44.30
2019-02-21T10:06:30.946Z,47.77
2019-02-21T10:09:04.853Z,42.77
2019-02-21T10:11:38.285Z,42.80
2019-02-21T10:14:11.761Z,40.27
2019-02-21T10:16:45.228Z,42.03
2019-02-21T10:19:18.669Z,43.33
2019-02-21T10:21:52.171Z,41.80
2019-02-21T10:24:25.599Z,39.57
2019-02-21T10:26:59.108Z,41.53
2019-02-21T10:29:32.542Z,39.17
2019-02-21T10:32:06.008Z,44.87
2019-02-21T10:34:43.048Z,46.00
2019-02-21T10:37:14.626Z,39.13
2019-02-21T10:39:48.076Z,48.33
2019-02-21T10:42:21.549Z,46.03
2019-02-21T10:44:55.020Z,47.93
2019-02-21T10:47:28.443Z,46.13
2019-02-21T10:50:01.909Z,48.23
2019-02-21T10:52:35.335Z,45.57
2019-02-21T10:55:08.852Z,45.13
2019-02-21T10:57:42.299Z,38.30
2019-02-21T11:00:18.779Z,48.10
2019-02-21T11:02:52.200Z,40.53
2019-02-21T11:05:25.698Z,35.50
2019-02-21T11:07:59.179Z,38.97
2019-02-21T11:10:32.660Z,35.17
2019-02-21T11:13:06.094Z,31.53
2019-02-21T11:15:41.939Z,34.20
2019-02-21T11:18:14.683Z,38.47
2019-02-21T11:20:48.109Z,39.73
2019-02-21T11:23:21.541Z,41.63
2019-02-21T11:25:54.990Z,38.60
2019-02-21T11:28:28.415Z,38.63
2019-02-21T11:31:01.889Z,35.57
2019-02-21T11:33:35.305Z,37.43
2019-02-21T11:36:08.840Z,36.77
2019-02-21T11:38:42.253Z,42.80
2019-02-21T11:41:15.678Z,39.90
2019-02-21T11:43:49.160Z,35.73
2019-02-21T11:46:22.624Z,42.00
2019-02-21T11:48:56.050Z,43.23
2019-02-21T11:51:29.525Z,42.97
2019-02-21T11:54:02.960Z,37.93
2019-02-21T11:56:36.431Z,45.70
2019-02-21T11:59:09.880Z,43.13
2019-02-21T12:01:43.435Z,41.83
2019-02-21T12:04:16.881Z,44.77
2019-02-21T12:06:50.376Z,43.77
2019-02-21T12:09:23.800Z,45.03
2019-02-21T12:11:57.278Z,39.60
2019-02-21T12:14:30.711Z,45.97
2019-02-21T12:17:04.152Z,47.03
2019-02-21T12:19:37.900Z,43.33
2019-02-21T12:22:11.745Z,42.97
2019-02-21T12:24:45.193Z,48.67
2019-02-21T12:27:18.619Z,46.60
2019-02-21T12:29:52.094Z,41.63
2019-02-21T12:32:25.516Z,44.17
2019-02-21T12:34:59.073Z,49.37
2019-02-21T12:37:32.500Z,38.17
2019-02-21T12:40:09.206Z,48.50
2019-02-21T12:42:42.826Z,50.43
2019-02-21T12:45:20.976Z,43.77
2019-02-21T12:47:54.412Z,43.77
2019-02-21T12:50:27.869Z,46.20
2019-02-21T12:53:01.397Z,47.03
2019-02-21T12:55:34.876Z,48.97
2019-02-21T12:58:08.314Z,46.40
2019-02-21T13:00:41.810Z,48.90
2019-02-21T13:03:15.260Z,45.27
2019-02-21T13:05:48.720Z,50.77
2019-02-21T13:08:22.158Z,46.53
2019-02-21T13:10:55.601Z,42.53
2019-02-21T13:13:29.040Z,38.73
2019-02-21T13:16:02.498Z,38.47
2019-02-21T13:18:35.938Z,38.73
2019-02-21T13:21:09.397Z,37.20
2019-02-21T13:23:43.109Z,44.07
2019-02-21T13:26:16.585Z,45.33
2019-02-21T13:28:50.060Z,46.77
2019-02-21T13:31:23.488Z,46.20
2019-02-21T13:33:56.971Z,53.27
2019-02-21T13:36:30.378Z,50.63
2019-02-21T13:39:05.180Z,50.13
2019-02-21T13:41:39.667Z,52.73
2019-02-21T13:44:13.128Z,52.33
2019-02-21T13:46:46.565Z,53.60
2019-02-21T13:49:27.657Z,47.63
2019-02-21T13:52:01.104Z,52.70
2019-02-21T13:54:34.556Z,50.40
2019-02-21T13:57:09.661Z,50.27
2019-02-21T13:59:43.196Z,50.10
2019-02-21T14:02:16.626Z,50.57
2019-02-21T14:04:50.078Z,48.00
2019-02-21T14:07:23.534Z,50.17
2019-02-21T14:09:56.962Z,54.83
2019-02-21T14:12:30.449Z,47.93
2019-02-21T14:15:04.912Z,50.80
2019-02-21T14:17:38.445Z,51.07
2019-02-21T14:20:11.973Z,57.13
2019-02-21T14:22:45.470Z,56.97
2019-02-21T14:25:18.908Z,59.07
2019-02-21T14:27:52.351Z,58.37
2019-02-21T14:30:25.820Z,61.23
2019-02-21T14:32:59.256Z,60.30
2019-02-21T14:35:32.721Z,61.90
2019-02-21T14:38:06.279Z,59.87
2019-02-21T14:40:39.802Z,54.70
2019-02-21T14:43:16.830Z,56.83
2019-02-21T14:45:48.584Z,56.53
2019-02-21T14:48:26.629Z,50.47
2019-02-21T14:50:58.824Z,56.97
2019-02-21T14:53:32.226Z,54.40
2019-02-21T14:56:05.693Z,52.17
2019-02-21T14:58:39.122Z,53.10
2019-02-21T15:01:12.598Z,49.40
2019-02-21T15:03:46.020Z,49.47
2019-02-21T15:06:27.105Z,45.80
2019-02-21T15:08:54.601Z,44.23
2019-02-21T15:11:28.033Z,48.40
2019-02-21T15:14:01.531Z,46.80
2019-02-21T15:16:34.982Z,41.93
2019-02-21T15:19:08.435Z,47.97
2019-02-21T15:21:41.878Z,47.77
2019-02-21T15:24:15.357Z,51.87
2019-02-21T15:26:48.763Z,50.83
2019-02-21T15:29:23.919Z,41.53
2019-02-21T15:31:57.351Z,46.57
2019-02-21T15:34:30.818Z,41.97
2019-02-21T15:37:04.254Z,42.37
2019-02-21T15:39:37.724Z,44.57
2019-02-21T15:42:11.144Z,46.47
2019-02-21T15:44:44.612Z,41.63
2019-02-21T15:47:18.056Z,43.77
2019-02-21T15:49:51.880Z,38.90
2019-02-21T15:52:25.304Z,40.90
2019-02-21T15:54:58.777Z,39.47
2019-02-21T15:57:32.210Z,37.00
2019-02-21T16:00:11.375Z,44.20
2019-02-21T16:02:44.905Z,42.87
2019-02-21T16:05:18.337Z,46.90
2019-02-21T16:07:51.805Z,46.50
2019-02-21T16:10:26.849Z,49.80
2019-02-21T16:13:04.211Z,52.10
2019-02-21T16:15:35.398Z,57.93
2019-02-21T16:18:08.889Z,49.63
2019-02-21T16:20:42.359Z,52.03
2019-02-21T16:23:15.790Z,52.47
2019-02-21T16:25:49.252Z,51.10
2019-02-21T16:28:22.663Z,59.57
2019-02-21T16:30:56.143Z,51.53
2019-02-21T16:33:29.615Z,52.67
2019-02-21T16:36:03.090Z,48.47
2019-02-21T16:38:36.521Z,45.33
2019-02-21T16:41:10.112Z,47.33
2019-02-21T16:43:43.572Z,44.17
2019-02-21T16:46:17.072Z,45.57
2019-02-21T16:48:50.537Z,49.97
2019-02-21T16:51:24.023Z,44.03
2019-02-21T16:53:57.499Z,45.53
2019-02-21T16:56:31.113Z,42.40
2019-02-21T16:59:04.569Z,43.50
2019-02-21T17:01:38.040Z,33.93
2019-02-21T17:04:11.559Z,38.53
2019-02-21T17:06:45.027Z,35.20
2019-02-21T17:09:18.497Z,36.13
2019-02-21T17:11:51.988Z,30.90
2019-02-21T17:14:25.490Z,36.83
2019-02-21T17:16:58.932Z,31.53
2019-02-21T17:19:32.660Z,31.03
2019-02-21T17:22:06.106Z,30.97
2019-02-21T17:24:39.684Z,27.40
2019-02-21T17:27:13.120Z,38.80
2019-02-21T17:29:48.254Z,24.80
2019-02-21T17:32:21.678Z,28.10
2019-02-21T17:34:55.714Z,27.03
2019-02-21T17:37:30.352Z,26.40
2019-02-21T17:40:06.120Z,26.53
2019-02-21T17:42:39.685Z,22.40
2019-02-21T17:45:13.335Z,27.20
2019-02-21T17:47:48.710Z,27.83
2019-02-21T17:50:21.908Z,26.40
2019-02-21T17:52:55.417Z,28.10
2019-02-21T17:55:30.131Z,27.10
2019-02-21T17:58:03.611Z,30.57
2019-02-21T18:00:38.799Z,30.83
2019-02-21T18:03:12.272Z,29.90
2019-02-21T18:05:45.755Z,31.70
2019-02-21T18:08:19.232Z,30.30
2019-02-21T18:10:52.706Z,27.07
2019-02-21T18:13:26.226Z,33.33
2019-02-21T18:15:59.713Z,33.97
2019-02-21T18:18:33.205Z,34.70
2019-02-21T18:21:08.266Z,35.20
2019-02-21T18:23:41.995Z,34.03
2019-02-21T18:26:16.346Z,34.03
2019-02-21T18:28:49.963Z,36.33
2019-02-21T18:31:23.481Z,34.97
2019-02-21T18:33:57.057Z,36.37
2019-02-21T18:36:30.615Z,33.10
2019-02-21T18:39:05.076Z,34.03
2019-02-21T18:41:42.577Z,35.67
2019-02-21T18:44:14.556Z,36.57
2019-02-21T18:46:48.015Z,38.67
2019-02-21T18:49:21.475Z,37.93
2019-02-21T18:51:59.861Z,40.33
2019-02-21T18:54:34.172Z,37.63
2019-02-21T18:57:07.725Z,41.80
2019-02-21T18:59:44.561Z,38.63
2019-02-21T19:02:19.824Z,42.97
2019-02-21T19:04:53.214Z,42.03
2019-02-21T19:07:26.679Z,43.03
2019-02-21T19:10:00.308Z,42.83
2019-02-21T19:12:37.003Z,43.47
2019-02-21T19:15:13.883Z,42.53
2019-02-21T19:17:50.822Z,45.10
2019-02-21T19:20:27.908Z,41.60
2019-02-21T19:23:01.336Z,44.83
2019-02-21T19:25:34.793Z,44.60
2019-02-21T19:28:09.974Z,44.80
2019-02-21T19:30:56.842Z,45.30
2019-02-21T19:33:31.772Z,47.77
2019-02-21T19:36:06.235Z,49.23
2019-02-21T19:38:39.902Z,43.30
2019-02-21T19:41:13.532Z,42.97
2019-02-21T19:43:48.491Z,41.83
2019-02-21T19:46:23.129Z,50.47
2019-02-21T19:48:56.636Z,49.63
2019-02-21T19:51:30.130Z,54.20
2019-02-21T19:54:03.545Z,47.53
2019-02-21T19:56:37.042Z,50.97
2019-02-21T19:59:10.637Z,50.40
2019-02-21T20:01:44.112Z,50.57
2019-02-21T20:04:17.761Z,53.80
2019-02-21T20:06:51.742Z,49.77
2019-02-21T20:09:25.439Z,51.17
2019-02-21T20:11:59.043Z,45.30
2019-02-21T20:14:32.549Z,51.40
2019-02-21T20:17:05.980Z,49.43
2019-02-21T20:19:39.456Z,45.97
2019-02-21T20:22:12.948Z,49.10
2019-02-21T20:24:46.418Z,47.07
2019-02-21T20:27:20.802Z,51.13
2019-02-21T20:29:54.265Z,51.37
2019-02-21T20:32:27.711Z,56.30
2019-02-21T20:35:01.202Z,45.90
2019-02-21T20:37:38.346Z,51.73
2019-02-21T20:40:12.214Z,52.23
2019-02-21T20:42:45.676Z,53.13
2019-02-21T20:45:19.169Z,51.60
2019-02-21T20:47:52.656Z,50.80
2019-02-21T20:50:26.081Z,53.93
2019-02-21T20:52:59.510Z,62.47
2019-02-21T20:55:43.052Z,59.43
2019-02-21T20:58:08.170Z,59.93
2019-02-21T21:00:41.626Z,64.90
2019-02-21T21:03:15.125Z,63.20
2019-02-21T21:05:48.588Z,67.10
2019-02-21T21:08:22.049Z,71.40
2019-02-21T21:10:55.711Z,81.80
2019-02-21T21:13:30.235Z,83.90
2019-02-21T21:16:05.149Z,82.50
2019-02-21T21:18:38.590Z,77.37
2019-02-21T21:21:12.063Z,80.03
2019-02-21T21:23:45.509Z,78.13
2019-02-21T21:26:18.997Z,84.93
2019-02-21T21:28:52.408Z,82.53
2019-02-21T21:31:26.354Z,87.10
2019-02-21T21:33:59.794Z,94.23
2019-02-21T21:36:33.286Z,88.37
2019-02-21T21:39:06.701Z,91.00
2019-02-21T21:41:40.164Z,93.83
2019-02-21T21:44:13.655Z,85.33
2019-02-21T21:46:47.104Z,90.47
2019-02-21T21:49:20.575Z,90.90
2019-02-21T21:51:54.023Z,90.00
2019-02-21T21:54:27.465Z,91.10
2019-02-21T21:57:00.965Z,92.80
2019-02-21T21:59:34.523Z,91.40
2019-02-21T22:02:08.049Z,85.03
2019-02-21T22:04:41.656Z,83.20
2019-02-21T22:07:15.088Z,85.93
2019-02-21T22:10:07.208Z,83.10
2019-02-21T22:12:42.376Z,84.83
2019-02-21T22:15:22.740Z,100.17
2019-02-21T22:18:04.473Z,91.10
2019-02-21T22:20:39.970Z,89.73
2019-02-21T22:23:21.338Z,95.43
2019-02-21T22:25:58.647Z,86.07
2019-02-21T22:28:36.577Z,88.63
2019-02-21T22:31:13.662Z,93.30
2019-02-21T22:33:52.898Z,81.67
2019-02-21T22:36:31.104Z,89.90
2019-02-21T22:39:23.982Z,84.00
2019-02-21T22:42:04.734Z,80.83
2019-02-21T22:44:43.810Z,80.83
2019-02-21T22:47:17.887Z,83.97
2019-02-21T22:49:58.832Z,82.43
2019-02-21T22:52:35.586Z,77.10
2019-02-21T22:55:10.311Z,73.90
2019-02-21T22:57:51.087Z,74.23
2019-02-21T23:00:50.267Z,72.63
2019-02-21T23:03:36.377Z,74.80
2019-02-21T23:06:35.493Z,83.30
2019-02-21T23:09:13.319Z,73.90
2019-02-21T23:11:47.028Z,77.40
2019-02-21T23:14:23.108Z,71.57
2019-02-21T23:16:58.445Z,71.07
2019-02-21T23:19:38.906Z,74.80
2019-02-21T23:22:12.503Z,75.33
2019-02-21T23:24:51.299Z,73.77
2019-02-21T23:27:27.629Z,65.97
2019-02-21T23:30:01.264Z,77.10
2019-02-21T23:32:40.920Z,75.93
2019-02-21T23:35:13.695Z,63.87
2019-02-21T23:37:48.975Z,66.47
2019-02-21T23:40:24.652Z,76.03
2019-02-21T23:43:02.459Z,65.37
2019-02-21T23:45:38.094Z,77.93
2019-02-21T23:48:13.225Z,63.97
2019-02-21T23:50:48.492Z,79.30
2019-02-21T23:53:29.069Z,81.10
2019-02-21T23:56:04.372Z,83.23
2019-02-21T23:58:43.914Z,86.20
